Time;durP1;ratioP1;P1;durP2;ratioP2;P2;SDS_P1;SDS_P2;PMS_P1;PMS_P2;Temp;Humidity;BMP_temperature;BMP_pressure;BME280_temperature;BME280_humidity;BME280_pressure;Samples;Min_cycle;Max_cycle;Signal;HPM_P1;HPM_P2
2021/12/16 00:01:50;;;;;;;;;34.00;27.00;;;;;11.91;63.87;103038.06;5012224;28;45478;-62
2021/12/16 00:07:14;;;;;;;;;33.75;27.75;;;;;11.84;63.62;103041.19;5020696;28;46113;-63
2021/12/16 00:09:53;;;;;;;;;32.75;28.25;;;;;11.86;63.56;103043.94;5022811;28;45080;-63
2021/12/16 00:29:22;;;;;;;;;28.00;26.50;;;;;11.92;63.43;103041.66;4997606;28;45317;-62
2021/12/16 00:31:54;;;;;;;;;28.00;24.50;;;;;11.88;63.46;103044.94;5002490;28;45391;-62
2021/12/16 00:34:23;;;;;;;;;27.00;23.00;;;;;11.87;63.37;103044.03;5005682;28;45231;-62
2021/12/16 00:36:50;;;;;;;;;24.75;21.25;;;;;11.87;62.87;103036.00;4997867;28;45427;-63
2021/12/16 00:39:23;;;;;;;;;26.75;22.25;;;;;11.90;63.11;103033.50;5026361;28;45331;-63
2021/12/16 00:41:53;;;;;;;;;24.00;21.00;;;;;11.80;63.08;103029.38;5032127;28;45393;-62
2021/12/16 00:47:24;;;;;;;;;24.50;22.50;;;;;11.97;63.37;103043.75;5031048;28;45029;-61
2021/12/16 00:49:48;;;;;;;;;31.75;23.50;;;;;11.92;63.63;103025.59;5022344;28;45999;-62
2021/12/16 00:55:23;;;;;;;;;25.50;23.00;;;;;12.01;63.29;103033.22;5021898;28;47888;-63
2021/12/16 00:57:51;;;;;;;;;25.25;22.50;;;;;12.04;63.02;103036.09;5023645;28;45295;-62
2021/12/16 01:00:17;;;;;;;;;25.75;24.25;;;;;11.97;62.48;103008.94;5022666;28;46254;-63
2021/12/16 01:03:07;;;;;;;;;31.75;23.00;;;;;12.07;63.19;103033.59;5029106;28;45042;-60
2021/12/16 01:06:35;;;;;;;;;29.25;24.25;;;;;12.07;62.67;103026.47;5016438;28;45369;-62
2021/12/16 01:08:37;;;;;;;;;28.75;25.00;;;;;12.10;62.51;103028.41;5015244;28;46439;-62
2021/12/16 01:51:53;;;;;;;;;21.00;20.00;;;;;12.21;61.88;103029.94;5028132;28;45065;-63
2021/12/16 01:57:05;;;;;;;;;26.00;20.75;;;;;12.27;62.01;103040.06;5030644;28;44907;-62
2021/12/16 01:59:36;;;;;;;;;26.25;20.25;;;;;12.19;60.99;103030.66;5028692;28;45434;-63
2021/12/16 02:02:24;;;;;;;;;27.25;23.50;;;;;12.21;61.63;103037.03;5026459;28;45510;-62
2021/12/16 02:10:13;;;;;;;;;27.75;23.00;;;;;12.18;61.76;103045.84;5025781;28;45505;-63
2021/12/16 02:13:10;;;;;;;;;26.25;20.50;;;;;12.16;61.49;103047.53;5031755;28;45025;-61
2021/12/16 02:34:29;;;;;;;;;25.00;22.50;;;;;12.22;60.56;103047.84;5029829;28;45183;-62
2021/12/16 02:36:55;;;;;;;;;26.75;24.00;;;;;12.22;61.15;103047.84;5029390;28;45096;-62
2021/12/16 02:39:24;;;;;;;;;20.50;18.50;;;;;12.24;61.58;103047.94;5027247;28;44939;-63
2021/12/16 02:41:55;;;;;;;;;21.25;16.50;;;;;12.25;61.46;103052.47;5030797;28;45087;-63
2021/12/16 02:44:29;;;;;;;;;29.50;24.75;;;;;12.26;62.16;103051.59;5019978;28;45300;-63
2021/12/16 02:49:44;;;;;;;;;29.75;25.00;;;;;12.25;61.45;103045.34;5021732;28;45442;-62
2021/12/16 02:52:11;;;;;;;;;28.50;24.25;;;;;12.27;61.84;103050.78;5029620;28;45559;-62
2021/12/16 02:54:37;;;;;;;;;31.50;25.75;;;;;12.27;62.32;103046.34;5026591;28;45382;-62
2021/12/16 02:57:04;;;;;;;;;26.75;21.25;;;;;12.29;61.98;103043.75;5029648;28;45438;-62
2021/12/16 02:59:30;;;;;;;;;31.00;28.00;;;;;12.29;62.24;103054.47;5031976;28;45330;-62
2021/12/16 03:02:06;;;;;;;;;30.50;24.75;;;;;12.31;62.00;103053.72;5032550;28;45090;-62
2021/12/16 03:04:32;;;;;;;;;27.50;23.50;;;;;11.93;61.84;102990.84;5032382;28;45156;-62
2021/12/16 03:06:59;;;;;;;;;35.25;25.75;;;;;12.30;62.46;103048.28;5032174;28;46513;-62
2021/12/16 03:10:01;;;;;;;;;32.50;30.00;;;;;11.92;62.96;102985.41;5032171;28;45285;-63
2021/12/16 03:14:51;;;;;;;;;34.50;30.25;;;;;12.26;62.34;103047.19;5032827;28;45004;-61
2021/12/16 03:17:26;;;;;;;;;36.75;32.50;;;;;12.17;62.81;103031.50;5031642;28;45197;-62
2021/12/16 03:22:47;;;;;;;;;39.50;31.50;;;;;12.18;63.45;103053.88;5031928;28;45260;-62
2021/12/16 03:30:27;;;;;;;;;39.25;33.00;;;;;12.19;62.54;103049.44;5016771;28;45578;-62
2021/12/16 03:37:54;;;;;;;;;34.00;32.00;;;;;12.14;63.51;103046.47;5017250;28;45386;-63
2021/12/16 03:40:20;;;;;;;;;42.00;33.50;;;;;12.19;63.64;103055.69;5018293;28;45534;-62
2021/12/16 03:42:51;;;;;;;;;37.75;29.25;;;;;12.18;63.31;103051.19;5031110;28;44971;-62
2021/12/16 03:48:25;;;;;;;;;40.00;33.50;;;;;12.17;63.28;103050.25;5031846;28;44979;-63
2021/12/16 03:50:51;;;;;;;;;38.75;34.25;;;;;12.15;63.15;103051.94;5032015;28;45112;-63
2021/12/16 03:53:17;;;;;;;;;40.00;31.00;;;;;12.17;62.95;103052.03;5031940;28;45187;-62
2021/12/16 03:55:48;;;;;;;;;40.00;33.75;;;;;12.19;63.17;103052.13;5032039;28;45230;-62
2021/12/16 03:58:17;;;;;;;;;34.00;27.25;;;;;11.71;62.94;102969.91;5026971;28;45221;-63
2021/12/16 04:00:51;;;;;;;;;48.75;36.50;;;;;12.16;63.63;103052.88;5023971;28;45495;-61
2021/12/16 04:03:16;;;;;;;;;37.00;32.00;;;;;12.15;63.18;103045.66;5013761;28;45215;-62
2021/12/16 04:05:43;;;;;;;;;42.50;34.75;;;;;12.19;63.34;103047.66;5013619;28;45160;-62
2021/12/16 04:08:10;;;;;;;;;38.50;32.75;;;;;12.21;63.29;103050.44;5017056;28;45518;-62
2021/12/16 04:10:43;;;;;;;;;43.50;33.75;;;;;12.21;63.57;103054.06;5033263;28;45263;-62
2021/12/16 04:13:12;;;;;;;;;48.75;37.75;;;;;12.23;63.56;103052.38;5031243;28;45371;-62
2021/12/16 04:15:38;;;;;;;;;38.00;33.25;;;;;12.20;63.68;103054.88;5029464;28;45701;-61
2021/12/16 04:18:04;;;;;;;;;40.75;31.00;;;;;12.19;63.63;103061.06;5033186;28;45802;-62
2021/12/16 04:20:29;;;;;;;;;36.25;30.50;;;;;11.98;63.16;103016.16;5031494;28;45024;-62
2021/12/16 04:22:56;;;;;;;;;34.00;31.00;;;;;12.09;63.20;103034.59;5033167;28;45146;-62
2021/12/16 04:25:25;;;;;;;;;38.00;30.00;;;;;12.22;63.76;103050.53;5031114;28;45486;-62
2021/12/16 04:27:54;;;;;;;;;37.50;31.75;;;;;12.21;63.39;103056.75;5027576;28;45338;-61
2021/12/16 04:30:21;;;;;;;;;39.75;31.75;;;;;12.21;62.92;103062.09;5016792;28;45261;-62
2021/12/16 04:32:47;;;;;;;;;31.25;28.00;;;;;12.24;63.42;103061.34;5016441;28;45511;-62
2021/12/16 04:35:13;;;;;;;;;32.50;29.00;;;;;12.07;62.74;103045.22;5018197;28;45378;-62
2021/12/16 04:37:39;;;;;;;;;38.50;32.25;;;;;12.06;63.22;103053.16;5017006;28;46969;-63
2021/12/16 04:40:09;;;;;;;;;35.25;31.50;;;;;12.17;62.88;103068.09;5018717;28;45363;-61
2021/12/16 04:42:36;;;;;;;;;39.50;32.50;;;;;12.18;63.08;103061.91;5021356;28;45590;-62
2021/12/16 04:45:04;;;;;;;;;25.75;25.00;;;;;12.21;62.65;103064.78;5022412;28;45600;-63
2021/12/16 04:47:30;;;;;;;;;32.25;27.00;;;;;12.22;62.92;103068.38;5025104;28;47759;-63
2021/12/16 04:49:55;;;;;;;;;18.25;12.50;;;;;12.27;62.25;103070.47;5025217;28;45010;-62
2021/12/16 04:52:21;;;;;;;;;29.50;27.00;;;;;12.11;62.71;103041.88;5031222;28;45280;-62
2021/12/16 04:54:47;;;;;;;;;32.25;30.25;;;;;12.23;63.08;103062.19;5017539;28;45319;-61
2021/12/16 04:57:12;;;;;;;;;27.75;27.00;;;;;12.20;62.89;103051.28;5022188;28;46251;-61
2021/12/16 04:59:39;;;;;;;;;32.00;26.00;;;;;12.33;62.15;103069.91;5023926;28;44981;-62
2021/12/16 05:02:08;;;;;;;;;31.25;27.50;;;;;12.37;61.65;103077.28;5028525;28;45028;-63
2021/12/16 05:04:34;;;;;;;;;31.00;23.25;;;;;12.38;61.71;103072.84;5017007;28;45449;-62
2021/12/16 05:06:59;;;;;;;;;21.25;21.25;;;;;12.38;61.66;103076.44;5018386;28;45430;-63
2021/12/16 05:12:10;;;;;;;;;24.50;22.75;;;;;12.25;61.54;103048.03;5024864;28;45367;-61
2021/12/16 05:14:36;;;;;;;;;26.75;23.00;;;;;12.41;61.46;103078.41;5021033;28;45476;-62
2021/12/16 05:17:08;;;;;;;;;23.75;21.50;;;;;12.46;61.35;103082.25;5020463;28;46328;-61
2021/12/16 05:19:34;;;;;;;;;26.75;24.25;;;;;12.10;61.15;103034.69;5024442;28;45433;-63
2021/12/16 05:24:15;;;;;;;;;27.50;21.00;;;;;12.44;61.11;103082.16;5015646;28;45452;-62
2021/12/16 05:24:45;;;;;;;;;28.75;25.00;;;;;12.45;61.12;103083.06;5017672;28;45280;-62
2021/12/16 05:27:11;;;;;;;;;29.50;28.50;;;;;12.45;61.54;103083.06;5021299;28;45968;-62
2021/12/16 05:29:38;;;;;;;;;37.25;27.25;;;;;12.45;61.37;103091.13;5014931;28;45364;-62
2021/12/16 05:32:04;;;;;;;;;34.75;29.25;;;;;12.41;62.07;103092.72;5015216;28;45402;-63
2021/12/16 05:34:30;;;;;;;;;23.50;23.50;;;;;12.35;61.93;103082.53;5024103;28;45306;-63
2021/12/16 05:36:55;;;;;;;;;38.25;32.25;;;;;12.25;61.93;103066.78;5031043;28;45054;-62
2021/12/16 05:39:22;;;;;;;;;40.75;35.75;;;;;12.02;62.66;103021.69;5031656;28;44998;-62
2021/12/16 05:41:48;;;;;;;;;36.50;30.75;;;;;12.42;63.04;103085.56;5029432;28;45311;-62
2021/12/16 05:44:15;;;;;;;;;44.75;37.00;;;;;12.41;63.04;103099.84;5029765;28;45288;-63
2021/12/16 05:46:40;;;;;;;;;42.75;34.25;;;;;11.91;62.10;103024.69;5029040;28;45538;-64
2021/12/16 05:49:10;;;;;;;;;47.00;37.50;;;;;12.28;62.87;103093.75;5031015;28;45527;-63
2021/12/16 05:51:38;;;;;;;;;42.00;36.75;;;;;12.35;62.52;103104.00;5027913;28;45325;-61
2021/12/16 05:54:05;;;;;;;;;46.75;37.75;;;;;12.39;63.04;103104.16;5028603;28;44935;-63
2021/12/16 05:56:30;;;;;;;;;40.00;35.75;;;;;12.38;62.92;103099.66;5029453;28;45362;-61
2021/12/16 05:58:57;;;;;;;;;36.25;32.50;;;;;12.25;63.18;103082.88;5030871;28;45341;-62
2021/12/16 06:01:26;;;;;;;;;41.75;34.00;;;;;12.39;62.56;103109.53;5030579;28;45292;-61
2021/12/16 06:03:53;;;;;;;;;43.00;34.25;;;;;12.27;63.50;103082.94;5028718;28;44936;-62
2021/12/16 06:06:20;;;;;;;;;36.00;31.50;;;;;12.07;63.88;103057.69;5028606;28;45582;-61
2021/12/16 06:08:46;;;;;;;;;38.25;31.25;;;;;12.39;63.17;103115.84;5028020;28;45207;-62
2021/12/16 06:11:19;;;;;;;;;19.25;16.00;;;;;12.42;62.82;103117.75;5029346;28;45277;-61
2021/12/16 06:27:46;;;;;;;;;38.25;32.75;;;;;12.38;63.17;103113.97;5031585;28;45132;-63
2021/12/16 06:30:17;;;;;;;;;38.75;32.50;;;;;12.36;63.74;103115.66;5026791;28;44992;-61
2021/12/16 06:32:43;;;;;;;;;33.25;31.75;;;;;12.38;63.38;103107.69;5030113;28;45211;-61
2021/12/16 06:35:10;;;;;;;;;32.50;31.50;;;;;12.35;63.70;103120.06;5029782;28;45194;-63
2021/12/16 06:37:36;;;;;;;;;29.00;29.00;;;;;12.33;62.86;103116.38;5029576;28;45569;-63
2021/12/16 06:40:04;;;;;;;;;31.00;29.25;;;;;12.35;62.72;103119.16;5030144;28;45148;-63
2021/12/16 06:42:30;;;;;;;;;32.25;28.00;;;;;12.36;63.21;103115.66;5029225;28;44984;-62
2021/12/16 06:45:03;;;;;;;;;40.50;29.75;;;;;12.37;63.59;103116.56;5031726;28;45171;-63
2021/12/16 06:47:38;;;;;;;;;37.00;32.00;;;;;12.34;63.89;103115.56;5028626;28;47353;-63
2021/12/16 06:50:04;;;;;;;;;36.25;33.25;;;;;12.39;63.58;103120.25;5030937;28;44946;-63
2021/12/16 06:52:37;;;;;;;;;38.25;33.00;;;;;12.39;62.83;103122.94;5031046;28;45179;-62
2021/12/16 06:55:22;;;;;;;;;28.50;26.00;;;;;12.37;63.00;103120.16;5032267;28;44899;-62
2021/12/16 06:57:55;;;;;;;;;30.00;27.75;;;;;12.21;63.53;103099.63;5029803;28;45764;-65
2021/12/16 07:00:37;;;;;;;;;34.00;30.25;;;;;12.40;63.54;103130.16;5027782;28;45209;-63
2021/12/16 07:03:05;;;;;;;;;38.00;31.25;;;;;12.41;63.03;103134.69;5029322;28;44966;-62
2021/12/16 07:05:36;;;;;;;;;47.50;38.25;;;;;12.24;63.07;103102.47;5027421;28;45872;-62
2021/12/16 07:08:05;;;;;;;;;50.25;41.00;;;;;12.46;63.09;103138.56;5029415;28;45699;-63
2021/12/16 07:10:31;;;;;;;;;49.25;39.00;;;;;12.42;62.67;103141.88;5029939;28;45097;-61
2021/12/16 07:13:00;;;;;;;;;34.25;28.75;;;;;12.40;63.21;103138.19;5030896;28;45170;-63
2021/12/16 07:15:30;;;;;;;;;34.75;30.50;;;;;12.45;63.22;103139.38;5044452;28;45096;-62
2021/12/16 07:17:56;;;;;;;;;39.75;34.00;;;;;12.45;62.53;103136.69;5025985;28;46563;-61
2021/12/16 07:20:26;;;;;;;;;31.75;24.00;;;;;12.46;62.65;103139.47;5028955;28;44886;-61
2021/12/16 07:22:52;;;;;;;;;28.75;28.75;;;;;12.37;63.17;103129.97;5028633;28;45231;-63
2021/12/16 07:25:17;;;;;;;;;35.00;26.25;;;;;12.45;63.13;103142.97;5030120;28;45154;-62
2021/12/16 07:27:43;;;;;;;;;38.25;32.25;;;;;12.33;62.53;103124.44;5022083;28;45811;-65
2021/12/16 07:30:12;;;;;;;;;34.00;32.25;;;;;12.49;62.82;103138.72;5027807;28;45100;-63
2021/12/16 07:32:38;;;;;;;;;39.25;34.50;;;;;12.50;62.84;103145.91;5029873;28;44941;-64
2021/12/16 07:35:09;;;;;;;;;37.25;33.75;;;;;12.52;62.79;103145.19;5013537;28;45250;-63
2021/12/16 07:37:35;;;;;;;;;39.75;32.00;;;;;12.52;62.54;103153.22;5013110;28;45981;-62
2021/12/16 07:40:06;;;;;;;;;33.00;28.50;;;;;12.54;62.23;103153.31;5013687;28;45507;-63
2021/12/16 07:42:42;;;;;;;;;30.50;27.75;;;;;12.49;63.12;103147.69;5013559;28;45466;-62
2021/12/16 07:45:08;;;;;;;;;42.50;36.50;;;;;12.49;62.75;103149.47;5016054;28;45360;-64
2021/12/16 07:47:34;;;;;;;;;52.50;43.00;;;;;12.49;62.90;103152.16;5016764;28;45324;-63
2021/12/16 07:50:00;;;;;;;;;42.00;33.25;;;;;12.49;63.19;103150.38;5016118;28;45388;-63
2021/12/16 07:52:25;;;;;;;;;35.25;30.00;;;;;12.50;63.26;103156.66;5017007;28;45471;-64
2021/12/16 07:54:51;;;;;;;;;50.25;39.00;;;;;12.38;63.20;103138.09;5026327;28;45276;-62
2021/12/16 07:57:16;;;;;;;;;40.50;33.75;;;;;12.52;63.08;103166.63;5021274;28;45459;-63
2021/12/16 07:59:41;;;;;;;;;42.25;34.00;;;;;12.53;63.79;103154.16;5015920;28;45322;-64
2021/12/16 08:02:11;;;;;;;;;32.25;26.50;;;;;12.53;63.15;103155.06;5015263;28;45338;-64
2021/12/16 08:04:42;;;;;;;;;30.25;28.75;;;;;12.51;63.30;103159.41;5016899;28;45395;-62
2021/12/16 08:07:09;;;;;;;;;59.25;46.25;;;;;12.52;63.75;103169.31;5015471;28;45585;-62
2021/12/16 08:09:35;;;;;;;;;38.75;31.50;;;;;12.48;62.84;103163.69;5015834;28;45359;-63
2021/12/16 08:12:02;;;;;;;;;36.75;33.00;;;;;12.46;63.35;103166.28;5015628;28;45461;-61
2021/12/16 08:14:28;;;;;;;;;59.50;47.25;;;;;12.51;62.94;103175.50;5015589;28;45474;-64
2021/12/16 08:16:53;;;;;;;;;34.75;29.00;;;;;12.51;63.25;103188.91;5015094;28;45341;-63
2021/12/16 08:19:19;;;;;;;;;34.25;31.75;;;;;12.48;63.48;103169.06;5015345;28;45437;-65
2021/12/16 08:21:45;;;;;;;;;42.25;33.50;;;;;12.47;63.18;103168.13;5015501;28;45294;-63
2021/12/16 08:24:16;;;;;;;;;32.75;32.00;;;;;12.55;63.52;103176.59;5016113;28;45307;-62
2021/12/16 08:26:46;;;;;;;;;34.50;31.50;;;;;12.54;62.78;103175.69;5015566;28;46395;-63
2021/12/16 08:29:13;;;;;;;;;37.50;30.25;;;;;12.45;63.29;103155.47;5015355;28;45734;-63
2021/12/16 08:31:38;;;;;;;;;34.00;31.75;;;;;12.59;63.05;103186.69;5015321;28;45417;-62
2021/12/16 08:34:05;;;;;;;;;31.75;30.50;;;;;12.58;62.73;103179.47;5015285;28;45275;-62
2021/12/16 08:36:31;;;;;;;;;51.75;39.75;;;;;12.62;62.62;103188.59;5014863;28;45419;-62
2021/12/16 08:38:58;;;;;;;;;42.25;35.25;;;;;12.64;62.78;103192.31;5014890;28;45431;-63
2021/12/16 08:41:28;;;;;;;;;43.00;32.75;;;;;12.64;63.08;103186.94;5015400;28;45404;-63
2021/12/16 08:43:53;;;;;;;;;34.25;30.75;;;;;12.61;62.75;103185.00;5016068;28;45642;-63
2021/12/16 08:46:23;;;;;;;;;32.50;31.50;;;;;12.56;62.58;103167.72;5015115;28;46409;-64
2021/12/16 08:48:50;;;;;;;;;45.50;36.50;;;;;12.62;63.12;103180.56;5014545;28;45333;-63
2021/12/16 08:51:18;;;;;;;;;45.00;35.25;;;;;12.69;62.81;103193.50;5015014;28;45427;-63
2021/12/16 08:53:44;;;;;;;;;40.50;32.50;;;;;12.70;62.77;103201.63;5015251;28;45454;-64
2021/12/16 08:56:10;;;;;;;;;43.50;35.00;;;;;12.69;62.53;103194.41;5014255;28;45303;-62
2021/12/16 08:58:37;;;;;;;;;36.00;33.50;;;;;12.58;62.19;103171.41;5014819;28;45487;-62
2021/12/16 09:01:19;;;;;;;;;33.75;30.50;;;;;12.73;62.46;103198.19;5015212;28;45345;-63
2021/12/16 09:03:46;;;;;;;;;62.50;48.00;;;;;12.76;62.00;103200.13;5015420;28;45434;-63
2021/12/16 09:06:11;;;;;;;;;43.50;35.25;;;;;12.76;61.78;103195.69;5014838;28;46207;-61
2021/12/16 09:08:38;;;;;;;;;36.00;32.00;;;;;12.75;62.61;103200.97;5014473;28;45404;-63
2021/12/16 09:11:06;;;;;;;;;37.25;32.00;;;;;12.80;62.07;103199.47;5015019;28;45450;-64
2021/12/16 09:13:32;;;;;;;;;34.75;31.75;;;;;12.82;61.77;103209.44;5015429;28;45399;-63
2021/12/16 09:16:01;;;;;;;;;33.50;29.75;;;;;12.84;62.74;103209.53;5014589;28;45469;-63
2021/12/16 09:18:31;;;;;;;;;41.25;31.75;;;;;12.85;62.43;103215.00;5014446;28;45470;-61
2021/12/16 09:20:59;;;;;;;;;36.25;29.50;;;;;12.87;61.39;103207.03;5015027;28;45342;-63
2021/12/16 09:23:26;;;;;;;;;35.00;32.50;;;;;12.89;61.56;103210.72;5015583;28;45426;-63
2021/12/16 09:25:52;;;;;;;;;49.75;38.75;;;;;12.91;61.50;103215.31;5014628;28;47006;-62
2021/12/16 09:28:19;;;;;;;;;39.00;32.25;;;;;12.94;61.83;103228.00;5014751;28;45506;-62
2021/12/16 09:30:45;;;;;;;;;33.50;28.00;;;;;12.96;61.22;103220.03;5014734;28;45534;-62
2021/12/16 09:33:14;;;;;;;;;47.00;37.75;;;;;12.99;61.91;103230.94;5014402;28;45486;-63
2021/12/16 09:35:42;;;;;;;;;36.00;32.00;;;;;13.00;61.30;103224.72;5014361;28;46134;-64
2021/12/16 09:38:10;;;;;;;;;32.50;31.00;;;;;13.04;61.54;103226.75;5014675;28;45499;-63
2021/12/16 09:40:39;;;;;;;;;55.00;44.50;;;;;13.05;61.27;103234.91;5014395;28;45525;-63
2021/12/16 09:43:06;;;;;;;;;33.25;31.25;;;;;13.06;60.81;103227.75;5014624;28;45330;-63
2021/12/16 09:45:31;;;;;;;;;35.00;31.00;;;;;13.08;61.01;103240.44;5014023;28;46615;-63
2021/12/16 09:47:57;;;;;;;;;40.00;30.75;;;;;13.11;61.42;103245.03;5014009;28;45384;-63
2021/12/16 09:50:28;;;;;;;;;38.50;31.25;;;;;13.11;61.09;103245.03;5014227;28;45438;-62
2021/12/16 09:52:53;;;;;;;;;32.50;31.00;;;;;13.09;60.42;103238.66;5014221;28;45525;-63
2021/12/16 09:55:19;;;;;;;;;35.75;31.50;;;;;13.06;60.93;103243.88;5013888;28;46282;-62
2021/12/16 09:57:45;;;;;;;;;35.50;29.75;;;;;13.06;60.70;103250.16;5014098;28;45296;-62
2021/12/16 10:00:14;;;;;;;;;42.25;34.50;;;;;13.07;61.04;103252.00;5014223;28;45404;-62
2021/12/16 10:02:39;;;;;;;;;43.25;34.25;;;;;13.12;61.37;103259.41;5014052;28;45386;-64
2021/12/16 10:05:07;;;;;;;;;36.00;31.25;;;;;13.09;61.29;103246.72;5013863;28;46314;-62
2021/12/16 10:07:34;;;;;;;;;33.00;31.00;;;;;13.09;60.97;103250.31;5012949;28;45335;-64
2021/12/16 10:10:05;;;;;;;;;39.50;33.75;;;;;13.11;61.30;103253.09;5013724;28;45509;-63
2021/12/16 10:12:36;;;;;;;;;48.75;40.25;;;;;13.13;61.74;103247.81;5014149;28;45579;-64
2021/12/16 10:17:21;;;;;;;;;45.25;34.25;;;;;13.14;60.59;103249.66;5013703;28;46054;-63
2021/12/16 10:17:48;;;;;;;;;39.75;33.25;;;;;13.16;61.30;103246.22;5013377;28;45453;-63
2021/12/16 10:20:22;;;;;;;;;43.50;32.75;;;;;13.20;60.30;103252.69;5013823;28;45530;-63
2021/12/16 10:22:50;;;;;;;;;42.50;31.75;;;;;13.22;60.18;103254.63;5013978;28;45391;-63
2021/12/16 10:25:24;;;;;;;;;41.50;32.25;;;;;13.22;61.09;103248.34;5013670;28;46196;-63
2021/12/16 10:28:01;;;;;;;;;31.75;30.25;;;;;13.22;60.41;103256.38;5013227;28;45428;-63
2021/12/16 10:30:42;;;;;;;;;36.00;32.50;;;;;13.19;60.03;103246.41;5028770;28;45508;-63
2021/12/16 10:33:18;;;;;;;;;32.25;27.50;;;;;11.71;59.95;102969.00;5013703;28;45481;-64
2021/12/16 10:35:47;;;;;;;;;37.75;31.50;;;;;13.31;60.29;103246.16;5013269;28;45981;-62
2021/12/16 10:38:17;;;;;;;;;38.75;33.50;;;;;13.38;59.95;103255.50;5013461;28;45439;-65
2021/12/16 10:40:50;;;;;;;;;35.25;29.50;;;;;13.42;60.21;103257.53;5013249;28;45452;-63
2021/12/16 10:43:33;;;;;;;;;41.75;36.00;;;;;13.46;60.24;103254.16;5013313;28;45441;-63
2021/12/16 10:46:04;;;;;;;;;44.00;33.50;;;;;13.48;59.05;103251.56;5013589;28;46350;-63
2021/12/16 10:48:35;;;;;;;;;53.50;40.75;;;;;13.49;59.74;103248.03;5013217;28;45460;-63
2021/12/16 10:51:03;;;;;;;;;36.75;32.25;;;;;13.51;59.06;103257.09;5013271;28;45310;-63
2021/12/16 10:53:50;;;;;;;;;40.50;35.00;;;;;13.52;59.18;103254.50;5014081;28;45586;-63
2021/12/16 10:56:19;;;;;;;;;37.25;31.75;;;;;13.34;59.18;103226.66;5013634;28;46411;-63
2021/12/16 10:58:47;;;;;;;;;39.25;31.25;;;;;13.51;59.55;103246.34;5013133;28;45487;-62
2021/12/16 11:01:32;;;;;;;;;42.75;33.25;;;;;13.30;59.56;103213.84;5012865;28;45435;-64
2021/12/16 11:03:58;;;;;;;;;41.25;32.75;;;;;13.56;59.10;103245.78;5012843;28;45378;-63
2021/12/16 11:06:30;;;;;;;;;36.25;30.25;;;;;13.43;58.66;103217.34;5012263;28;45905;-65
2021/12/16 11:09:41;;;;;;;;;39.50;30.75;;;;;13.55;58.92;103241.25;5012843;28;45489;-64
2021/12/16 11:12:17;;;;;;;;;34.75;31.75;;;;;13.54;59.26;103250.13;5004137;28;45635;-61
2021/12/16 11:15:08;;;;;;;;;44.00;33.00;;;;;13.55;58.74;103249.28;5013136;28;45514;-65
2021/12/16 11:18:02;;;;;;;;;45.50;34.75;;;;;13.56;59.21;103243.09;5012931;28;45489;-63
2021/12/16 11:20:46;;;;;;;;;42.00;30.50;;;;;13.59;58.39;103253.06;5016504;28;45370;-64
2021/12/16 11:23:21;;;;;;;;;34.75;30.75;;;;;13.58;58.80;103248.56;5016511;28;45549;-63
2021/12/16 11:26:03;;;;;;;;;34.25;31.00;;;;;13.53;59.03;103245.63;5016699;28;45437;-64
2021/12/16 11:28:38;;;;;;;;;43.75;29.00;;;;;13.48;58.83;103232.75;5016400;28;45493;-65
2021/12/16 11:31:07;;;;;;;;;44.25;35.75;;;;;13.62;59.33;103246.09;5015938;28;45597;-62
2021/12/16 11:33:39;;;;;;;;;38.75;33.50;;;;;13.61;58.42;103251.38;5016246;28;46073;-64
2021/12/16 11:36:28;;;;;;;;;41.75;33.00;;;;;13.57;58.26;103254.75;5016153;28;45750;-64
2021/12/16 11:39:01;;;;;;;;;35.25;31.25;;;;;13.56;59.13;103247.53;5015916;28;46173;-64
2021/12/16 11:41:40;;;;;;;;;39.50;34.50;;;;;13.47;58.90;103221.09;5015947;28;45457;-63
2021/12/16 11:44:17;;;;;;;;;40.75;32.25;;;;;13.58;58.75;103241.41;5015820;28;45517;-64
2021/12/16 11:46:48;;;;;;;;;38.00;31.25;;;;;13.61;59.19;103241.59;5015949;28;45561;-63
2021/12/16 11:49:20;;;;;;;;;42.00;33.50;;;;;13.60;58.97;103237.03;5015643;28;46115;-62
2021/12/16 11:52:00;;;;;;;;;41.25;32.75;;;;;13.57;58.77;103235.94;5015762;28;45505;-63
2021/12/16 11:54:37;;;;;;;;;54.75;42.50;;;;;13.58;58.66;103238.72;5016246;28;45828;-65
2021/12/16 11:57:11;;;;;;;;;37.50;33.25;;;;;13.58;58.83;103230.66;5016475;28;45475;-64
2021/12/16 11:59:44;;;;;;;;;42.00;32.00;;;;;13.57;58.87;103236.88;5015708;28;46060;-63
2021/12/16 12:02:49;;;;;;;;;35.50;30.50;;;;;13.60;59.03;103241.50;5015452;28;45438;-64
2021/12/16 12:05:35;;;;;;;;;39.50;31.25;;;;;13.60;58.75;103237.03;5015173;28;45588;-62
2021/12/16 12:08:09;;;;;;;;;50.50;39.50;;;;;13.62;59.34;103242.50;5016068;28;45709;-65
2021/12/16 12:10:51;;;;;;;;;39.25;32.75;;;;;13.63;58.84;103241.66;5015008;28;45832;-62
2021/12/16 12:13:23;;;;;;;;;35.25;32.25;;;;;13.57;58.98;103228.81;5015822;28;45687;-65
2021/12/16 12:15:56;;;;;;;;;42.75;35.75;;;;;13.68;58.92;103232.09;5015352;28;45473;-64
2021/12/16 12:18:32;;;;;;;;;37.25;32.00;;;;;13.67;58.20;103240.97;5015958;28;45494;-64
2021/12/16 12:21:15;;;;;;;;;36.50;32.75;;;;;13.65;58.78;103229.22;5015630;28;45574;-67
2021/12/16 12:23:42;;;;;;;;;46.00;36.25;;;;;13.70;58.57;103229.47;5013759;28;45429;-66
2021/12/16 12:26:14;;;;;;;;;44.50;37.00;;;;;13.57;57.95;103190.28;5015170;28;45472;-64
2021/12/16 12:28:39;;;;;;;;;39.50;34.25;;;;;13.76;58.71;103230.72;5015069;28;45536;-64
2021/12/16 12:31:05;;;;;;;;;31.50;29.25;;;;;13.69;58.28;103201.66;5014492;28;45463;-64
2021/12/16 12:33:30;;;;;;;;;38.50;33.00;;;;;13.75;57.43;103220.81;5013694;28;45359;-63
2021/12/16 12:35:56;;;;;;;;;40.25;34.50;;;;;13.70;58.29;103214.28;5015271;28;45594;-64
2021/12/16 12:38:21;;;;;;;;;36.50;30.50;;;;;13.73;57.80;103211.75;5015896;28;45580;-62
2021/12/16 12:40:47;;;;;;;;;38.00;33.25;;;;;13.79;57.95;103222.84;5015149;28;45950;-64
2021/12/16 12:43:14;;;;;;;;;37.00;31.00;;;;;13.78;58.06;103212.91;5015248;28;45367;-64
2021/12/16 12:45:42;;;;;;;;;34.00;30.50;;;;;13.83;58.13;103214.06;5015387;28;45522;-63
2021/12/16 12:48:13;;;;;;;;;40.75;33.50;;;;;13.74;57.72;103196.56;5015450;28;45428;-65
2021/12/16 12:50:42;;;;;;;;;43.00;36.50;;;;;13.77;57.87;103196.72;5014355;28;46696;-64
2021/12/16 12:53:17;;;;;;;;;37.25;31.00;;;;;13.86;57.95;103213.34;5014976;28;45436;-65
2021/12/16 12:55:44;;;;;;;;;39.50;32.50;;;;;13.84;57.30;103209.63;5015225;28;45400;-64
2021/12/16 12:58:14;;;;;;;;;33.50;31.25;;;;;13.88;57.89;103210.72;5015276;28;45451;-64
2021/12/16 13:00:49;;;;;;;;;39.25;31.50;;;;;13.89;57.58;103207.19;5014710;28;46325;-64
2021/12/16 13:03:25;;;;;;;;;44.00;35.75;;;;;13.89;57.32;103207.19;5014772;28;45453;-64
2021/12/16 13:05:53;;;;;;;;;32.50;27.50;;;;;13.88;57.69;103200.88;5030507;28;45540;-63
2021/12/16 13:08:27;;;;;;;;;25.75;25.75;;;;;13.88;57.66;103197.28;5015444;28;45550;-63
2021/12/16 13:11:04;;;;;;;;;30.75;25.75;;;;;13.90;57.58;103209.03;5014633;28;46011;-64
2021/12/16 13:13:40;;;;;;;;;31.50;27.00;;;;;13.90;56.77;103206.34;5013255;28;45392;-65
2021/12/16 13:16:51;;;;;;;;;33.25;30.25;;;;;13.91;57.40;103203.75;5014887;28;45388;-64
2021/12/16 13:28:14;;;;;;;;;28.00;26.50;;;;;13.96;56.57;103196.84;5013624;28;45404;-62
2021/12/16 13:30:51;;;;;;;;;28.50;24.50;;;;;13.97;56.86;103195.06;5014913;28;45512;-64
2021/12/16 13:33:24;;;;;;;;;26.00;23.50;;;;;13.97;56.85;103192.38;5014193;28;46169;-64
2021/12/16 13:36:02;;;;;;;;;31.00;28.00;;;;;13.95;56.61;103178.84;5014930;28;45668;-62
2021/12/16 13:38:40;;;;;;;;;22.25;21.50;;;;;13.98;56.36;103187.06;5014072;28;45368;-63
2021/12/16 13:41:12;;;;;;;;;24.75;22.50;;;;;13.98;56.30;103186.16;5014129;28;45280;-63
2021/12/16 13:43:38;;;;;;;;;32.25;25.00;;;;;13.94;56.89;103184.16;5013904;28;46437;-63
2021/12/16 14:01:09;;;;;;;;;30.75;27.00;;;;;14.02;57.10;103185.47;4971409;28;45454;-64